Ascension Island, Ascension Island

4:03 PM GMT on August 31, 2016 (GMT +0000)
Ascension Aux Air Base / Wideawake Field | | Change Station

Elev 259 ft 7.97 °S, 14.41 °W | Updated 13 minutes ago

Overcast
Overcast
77 °F
Feels Like 77 °F
N
15
Wind Variable Wind from SE

Today
High -- | Low -- °F
--% Chance of Precip.
Yesterday
High -- | Low -- °F
Precip. -- in
Pressure 30.01 in
Visibility 6.2 miles
Clouds Scattered Clouds 2800 ft
Overcast 4600 ft
Dew Point 63 °F
Humidity 61%
Rainfall 0.00 in
Snow Depth Not available.
6:59 AM 6:56 PM
Waning Crescent, 1% visible
METAR FHAW 311550Z 14013KT 9999 SCT028 OVC046 25/17 Q1016 BLU NOSIG
Pressure 30.01 in
Visibility 6.2 miles
Clouds Scattered Clouds 2800 ft
Overcast 4600 ft
Dew Point 63 °F
Humidity 61%
Rainfall 0.00 in
Snow Depth Not available.
6:59 AM 6:56 PM
Waning Crescent, 1% visible
METAR FHAW 311550Z 14013KT 9999 SCT028 OVC046 25/17 Q1016 BLU NOSIG

10-Day Weather Forecast

No radar image for this location.
×

Almanac

Astronomy

Aug. 31, 2016 Rise Set
Actual Time
Civil Twilight
Nautical Twilight
Astronomical Twilight
Moon
Length of Visible Light
Length of Day
Tomorrow will be .
, % of the Moon is Illuminated

Today's Extremes

Country Highs Country Lows

Community

WunderPhotos

Upload Photos

1,936,102 photos uploaded!

WunderBlog® & News

Nearby

Air Quality

  Air Quality AQ Index Pollutant
Not available.

Snow Depth

Station Depth Elevation

Earthquake Activity

City Distance Mag. Time & Date
Minimum magnitude displayed is 2.5.

Coastal Water Temperatures

Place Temperature

Stations

Nearby Weather Stations

Station Location Temp. Windchill Dew Point Humidity Wind Precip. Elev Updated Type